createdAt,value
2019-02-18T00:02:06.447Z,9.57
2019-02-18T00:05:09.736Z,8.80
2019-02-18T00:08:12.957Z,9.53
2019-02-18T00:11:16.120Z,9.90
2019-02-18T00:14:19.327Z,8.73
2019-02-18T00:17:22.516Z,10.20
2019-02-18T00:20:25.701Z,10.23
2019-02-18T00:23:28.884Z,9.23
2019-02-18T00:26:32.086Z,9.93
2019-02-18T00:29:35.403Z,9.83
2019-02-18T00:32:38.579Z,8.97
2019-02-18T00:35:41.792Z,9.67
2019-02-18T00:38:45.043Z,9.77
2019-02-18T00:41:49.342Z,9.80
2019-02-18T00:44:51.251Z,10.03
2019-02-18T00:47:54.448Z,9.63
2019-02-18T00:50:57.659Z,10.20
2019-02-18T00:54:00.831Z,9.97
2019-02-18T00:57:03.959Z,10.23
2019-02-18T01:00:07.854Z,9.90
2019-02-18T01:03:11.124Z,9.83
2019-02-18T01:06:14.228Z,9.77
2019-02-18T01:09:17.425Z,9.37
2019-02-18T01:12:20.519Z,9.80
2019-02-18T01:15:23.611Z,8.83
2019-02-18T01:18:26.706Z,9.47
2019-02-18T01:21:29.903Z,9.60
2019-02-18T01:24:33.101Z,9.37
2019-02-18T01:27:36.207Z,9.60
2019-02-18T01:30:39.392Z,10.03
2019-02-18T01:33:42.564Z,9.50
2019-02-18T01:36:45.754Z,9.00
2019-02-18T01:39:48.889Z,8.87
2019-02-18T01:42:52.087Z,9.03
2019-02-18T01:45:55.258Z,9.53
2019-02-18T01:48:58.536Z,9.07
2019-02-18T01:52:01.626Z,9.37
2019-02-18T01:55:05.203Z,10.00
2019-02-18T01:58:08.327Z,9.30
2019-02-18T02:01:11.520Z,10.03
2019-02-18T02:04:14.695Z,9.77
2019-02-18T02:07:17.815Z,9.70
2019-02-18T02:10:21.035Z,9.30
2019-02-18T02:13:26.950Z,10.10
2019-02-18T02:16:30.048Z,9.20
2019-02-18T02:19:33.249Z,9.30
2019-02-18T02:22:36.468Z,9.20
2019-02-18T02:25:39.636Z,9.07
2019-02-18T02:28:42.849Z,8.93
2019-02-18T02:31:46.051Z,9.57
2019-02-18T02:34:49.222Z,8.27
2019-02-18T02:37:52.435Z,8.13
2019-02-18T02:40:55.619Z,8.30
2019-02-18T02:43:58.824Z,8.27
2019-02-18T02:47:02.021Z,7.63
2019-02-18T02:50:05.421Z,7.87
2019-02-18T02:53:08.615Z,8.00
2019-02-18T02:56:11.890Z,8.23
2019-02-18T02:59:14.979Z,8.37
2019-02-18T03:02:18.175Z,7.93
2019-02-18T03:05:21.375Z,8.73
2019-02-18T03:08:24.575Z,8.33
2019-02-18T03:11:27.763Z,8.00
2019-02-18T03:14:30.985Z,8.17
2019-02-18T03:17:34.147Z,8.90
2019-02-18T03:20:37.379Z,8.60
2019-02-18T03:23:40.547Z,8.60
2019-02-18T03:26:43.630Z,8.13
2019-02-18T03:30:55.122Z,8.73
2019-02-18T03:34:02.555Z,8.30
2019-02-18T03:37:05.703Z,8.63
2019-02-18T03:40:08.818Z,8.03
2019-02-18T03:43:12.099Z,8.23
2019-02-18T03:46:15.299Z,8.47
2019-02-18T03:49:18.770Z,8.33
2019-02-18T03:52:21.977Z,8.10
2019-02-18T03:55:25.091Z,8.77
2019-02-18T03:58:28.295Z,8.97
2019-02-18T04:01:31.486Z,8.30
2019-02-18T04:04:34.800Z,9.30
2019-02-18T04:07:38.089Z,8.70
2019-02-18T04:10:41.263Z,8.53
2019-02-18T04:13:44.446Z,8.70
2019-02-18T04:16:47.543Z,8.90
2019-02-18T04:19:50.740Z,9.00
2019-02-18T04:22:54.160Z,8.77
2019-02-18T04:25:57.303Z,8.87
2019-02-18T04:29:00.450Z,9.23
2019-02-18T04:32:03.641Z,8.90
2019-02-18T04:35:06.885Z,9.27
2019-02-18T04:38:10.003Z,8.53
2019-02-18T04:41:13.097Z,9.30
2019-02-18T04:44:16.309Z,9.50
2019-02-18T04:47:19.510Z,9.10
2019-02-18T04:50:22.683Z,9.27
2019-02-18T04:53:25.883Z,9.93
2019-02-18T04:56:29.080Z,8.73
2019-02-18T04:59:32.276Z,9.13
2019-02-18T05:02:35.465Z,8.77
2019-02-18T05:05:38.774Z,10.00
2019-02-18T05:08:41.947Z,8.83
2019-02-18T05:11:45.034Z,9.03
2019-02-18T05:14:48.238Z,8.80
2019-02-18T05:17:51.346Z,9.23
2019-02-18T05:20:54.645Z,9.23
2019-02-18T05:23:57.920Z,9.00
2019-02-18T05:27:01.133Z,9.33
2019-02-18T05:30:04.549Z,9.83
2019-02-18T05:33:07.867Z,9.30
2019-02-18T05:36:11.010Z,9.07
2019-02-18T05:39:18.141Z,9.37
2019-02-18T05:42:17.403Z,8.80
2019-02-18T05:45:20.591Z,9.07
2019-02-18T05:48:23.904Z,8.80
2019-02-18T05:51:28.822Z,8.43
2019-02-18T05:54:30.282Z,8.50
2019-02-18T05:57:33.567Z,9.13
2019-02-18T06:00:36.760Z,8.83
2019-02-18T06:03:39.870Z,10.00
2019-02-18T06:06:43.169Z,9.27
2019-02-18T06:09:46.467Z,10.67
2019-02-18T06:12:49.667Z,9.57
2019-02-18T06:15:52.898Z,10.03
2019-02-18T06:18:56.046Z,9.93
2019-02-18T06:21:59.352Z,10.67
2019-02-18T06:25:02.565Z,10.27
2019-02-18T06:28:06.334Z,11.37
2019-02-18T06:31:09.546Z,10.23
2019-02-18T06:34:12.741Z,11.03
2019-02-18T06:37:15.955Z,10.80
2019-02-18T06:40:19.132Z,9.07
2019-02-18T06:43:22.231Z,8.97
2019-02-18T06:46:29.876Z,8.80
2019-02-18T06:49:33.883Z,8.80
2019-02-18T06:52:37.215Z,8.43
2019-02-18T06:55:40.435Z,8.93
2019-02-18T06:59:03.975Z,9.30
2019-02-18T07:02:12.547Z,9.60
2019-02-18T07:05:21.831Z,9.50
2019-02-18T07:08:30.296Z,10.10
2019-02-18T07:11:38.836Z,9.17
2019-02-18T07:14:41.979Z,8.77
2019-02-18T07:17:45.167Z,8.80
2019-02-18T07:20:48.384Z,8.80
2019-02-18T07:23:51.553Z,9.17
2019-02-18T07:26:54.744Z,9.07
2019-02-18T07:29:57.850Z,9.00
2019-02-18T07:33:01.035Z,9.57
2019-02-18T07:36:04.225Z,9.80
2019-02-18T07:39:07.708Z,10.00
2019-02-18T07:42:10.832Z,8.83
2019-02-18T07:45:14.031Z,9.53
2019-02-18T07:48:17.319Z,9.23
2019-02-18T07:51:20.626Z,9.60
2019-02-18T07:54:23.803Z,9.33
2019-02-18T07:57:27.012Z,9.50
2019-02-18T08:00:30.215Z,10.03
2019-02-18T08:03:33.409Z,10.13
2019-02-18T08:06:36.595Z,9.63
2019-02-18T08:09:39.782Z,10.53
2019-02-18T08:12:43.087Z,11.17
2019-02-18T08:15:46.286Z,10.10
2019-02-18T08:18:49.492Z,10.13
2019-02-18T08:21:52.685Z,10.97
2019-02-18T08:24:55.886Z,11.03
2019-02-18T08:27:59.153Z,10.77
2019-02-18T08:31:02.345Z,10.87
2019-02-18T08:34:05.555Z,10.17
2019-02-18T08:37:09.341Z,10.97
2019-02-18T08:40:21.697Z,10.27
2019-02-18T08:43:15.733Z,10.87
2019-02-18T08:46:18.842Z,10.10
2019-02-18T08:49:22.137Z,11.53
2019-02-18T08:52:25.351Z,11.27
2019-02-18T08:55:28.557Z,11.27
2019-02-18T08:58:31.808Z,10.93
2019-02-18T09:01:34.919Z,10.50
2019-02-18T09:04:38.005Z,10.30
2019-02-18T09:07:41.229Z,10.47
2019-02-18T09:10:44.356Z,12.27
2019-02-18T09:13:47.504Z,11.83
2019-02-18T09:16:50.668Z,11.43
2019-02-18T09:19:53.862Z,10.67
2019-02-18T09:23:04.401Z,10.67
2019-02-18T09:26:07.511Z,11.03
2019-02-18T09:29:10.821Z,10.33
2019-02-18T09:32:13.921Z,11.37
2019-02-18T09:35:17.014Z,9.83
2019-02-18T09:38:24.949Z,10.83
2019-02-18T09:41:23.305Z,11.57
2019-02-18T09:44:26.503Z,10.37
2019-02-18T09:47:29.587Z,10.37
2019-02-18T09:50:32.783Z,11.43
2019-02-18T09:53:35.980Z,10.17
2019-02-18T09:56:39.171Z,11.07
2019-02-18T09:59:42.359Z,11.30
2019-02-18T10:02:45.555Z,10.53
2019-02-18T10:05:48.744Z,10.50
2019-02-18T10:08:51.988Z,10.97
2019-02-18T10:11:55.176Z,11.17
2019-02-18T10:14:58.431Z,11.10
2019-02-18T10:18:01.631Z,10.67
2019-02-18T10:21:04.973Z,10.73
2019-02-18T10:24:08.146Z,10.27
2019-02-18T10:27:11.318Z,9.97
2019-02-18T10:30:14.669Z,10.87
2019-02-18T10:33:17.814Z,10.47
2019-02-18T10:36:20.996Z,10.87
2019-02-18T10:39:24.115Z,10.37
2019-02-18T10:42:27.279Z,10.33
2019-02-18T10:45:30.384Z,10.60
2019-02-18T10:48:33.697Z,10.17
2019-02-18T10:51:36.897Z,10.20
2019-02-18T10:54:40.989Z,11.73
2019-02-18T10:57:44.071Z,10.53
2019-02-18T11:00:47.367Z,10.53
2019-02-18T11:03:50.580Z,11.20
2019-02-18T11:06:53.763Z,10.83
2019-02-18T11:09:56.851Z,10.83
2019-02-18T11:13:01.063Z,11.40
2019-02-18T11:16:04.168Z,11.63
2019-02-18T11:19:07.363Z,11.33
2019-02-18T11:22:10.551Z,11.73
2019-02-18T11:25:13.852Z,10.30
2019-02-18T11:28:17.046Z,10.90
2019-02-18T11:31:20.235Z,11.80
2019-02-18T11:34:23.431Z,11.23
2019-02-18T11:37:26.619Z,10.97
2019-02-18T11:40:32.068Z,11.10
2019-02-18T11:43:32.962Z,10.93
2019-02-18T11:46:36.131Z,10.53
2019-02-18T11:49:39.307Z,11.00
2019-02-18T11:52:42.399Z,10.60
2019-02-18T11:55:45.496Z,11.10
2019-02-18T11:58:48.691Z,10.33
2019-02-18T12:01:51.895Z,10.23
2019-02-18T12:04:55.098Z,10.33
2019-02-18T12:07:58.275Z,9.90
2019-02-18T12:11:01.475Z,10.33
2019-02-18T12:14:04.784Z,9.70
2019-02-18T12:17:07.972Z,9.87
2019-02-18T12:20:11.976Z,9.67
2019-02-18T12:23:15.170Z,9.77
2019-02-18T12:26:18.363Z,9.87
2019-02-18T12:29:26.156Z,9.47
2019-02-18T12:32:24.839Z,9.70
2019-02-18T12:35:31.661Z,9.67
2019-02-18T12:38:31.248Z,9.40
2019-02-18T12:41:34.320Z,7.83
2019-02-18T12:44:37.515Z,9.47
2019-02-18T12:47:40.640Z,8.77
2019-02-18T12:50:43.835Z,8.73
2019-02-18T12:53:47.124Z,6.67
2019-02-18T12:56:50.319Z,7.77
2019-02-18T12:59:53.736Z,7.77
2019-02-18T13:02:56.694Z,7.93
2019-02-18T13:05:59.903Z,7.50
2019-02-18T13:09:03.490Z,6.47
2019-02-18T13:12:06.697Z,7.37
2019-02-18T13:15:11.107Z,8.17
2019-02-18T13:18:14.314Z,7.43
2019-02-18T13:21:17.508Z,6.60
2019-02-18T13:24:20.686Z,7.10
2019-02-18T13:27:23.784Z,7.37
2019-02-18T13:30:26.882Z,7.23
2019-02-18T13:33:30.067Z,6.60
2019-02-18T13:36:33.267Z,6.60
2019-02-18T13:39:36.471Z,6.57
2019-02-18T13:42:39.659Z,7.07
2019-02-18T13:45:42.862Z,8.60
2019-02-18T13:48:46.075Z,8.97
2019-02-18T13:51:56.369Z,8.93
2019-02-18T13:54:52.554Z,8.17
2019-02-18T13:57:55.735Z,8.27
2019-02-18T14:00:58.927Z,8.13
2019-02-18T14:04:02.018Z,8.23
2019-02-18T14:07:05.229Z,7.70
2019-02-18T14:10:08.418Z,6.83
2019-02-18T14:13:11.602Z,7.03
2019-02-18T14:16:14.677Z,7.37
2019-02-18T14:19:17.802Z,7.47
2019-02-18T14:22:21.005Z,7.20
2019-02-18T14:25:24.184Z,7.83
2019-02-18T14:28:27.387Z,7.30
2019-02-18T14:31:30.571Z,7.07
2019-02-18T14:34:33.779Z,7.47
2019-02-18T14:37:36.955Z,7.17
2019-02-18T14:40:40.203Z,7.00
2019-02-18T14:43:43.351Z,7.43
2019-02-18T14:46:46.618Z,7.30
2019-02-18T14:49:49.830Z,7.77
2019-02-18T14:52:52.958Z,7.63
2019-02-18T14:55:56.144Z,7.47
2019-02-18T14:58:59.307Z,6.40
2019-02-18T15:02:02.512Z,5.37
2019-02-18T15:05:05.816Z,5.90
2019-02-18T15:08:08.898Z,6.33
2019-02-18T15:11:12.011Z,5.77
2019-02-18T15:14:15.172Z,6.60
2019-02-18T15:17:18.275Z,6.60
2019-02-18T15:20:21.390Z,5.93
2019-02-18T15:23:24.585Z,6.10
2019-02-18T15:26:27.775Z,5.47
2019-02-18T15:29:30.956Z,5.73
2019-02-18T15:32:36.603Z,5.40
2019-02-18T15:35:39.903Z,5.33
2019-02-18T15:38:43.107Z,5.17
2019-02-18T15:41:46.187Z,5.70
2019-02-18T15:44:49.386Z,6.10
2019-02-18T15:47:52.586Z,5.87
2019-02-18T15:50:55.795Z,5.80
2019-02-18T15:53:58.971Z,6.07
2019-02-18T15:57:02.067Z,5.73
2019-02-18T16:00:07.215Z,5.87
2019-02-18T16:03:10.403Z,6.60
2019-02-18T16:06:13.599Z,6.30
2019-02-18T16:09:16.779Z,5.77
2019-02-18T16:12:19.904Z,5.83
2019-02-18T16:15:23.090Z,6.13
2019-02-18T16:18:26.292Z,6.17
2019-02-18T16:21:29.466Z,6.33
2019-02-18T16:24:32.651Z,6.23
2019-02-18T16:27:35.754Z,6.47
2019-02-18T16:30:38.950Z,5.50
2019-02-18T16:33:42.235Z,6.50
2019-02-18T16:36:45.326Z,6.70
2019-02-18T16:39:48.537Z,6.97
2019-02-18T16:42:59.030Z,7.93
2019-02-18T16:45:54.824Z,8.73
2019-02-18T16:48:57.927Z,6.93
2019-02-18T16:52:01.121Z,11.67
2019-02-18T16:55:04.518Z,9.97
2019-02-18T16:58:07.697Z,8.10
2019-02-18T17:01:10.902Z,8.57
2019-02-18T17:04:13.992Z,6.70
2019-02-18T17:07:17.182Z,6.77
2019-02-18T17:10:20.366Z,7.63
2019-02-18T17:13:23.467Z,7.40
2019-02-18T17:16:26.659Z,7.70
2019-02-18T17:19:29.866Z,7.67
2019-02-18T17:22:33.152Z,7.10
2019-02-18T17:25:36.478Z,7.40
2019-02-18T17:28:39.819Z,9.57
2019-02-18T17:31:42.946Z,7.90
2019-02-18T17:34:46.138Z,7.33
2019-02-18T17:37:49.353Z,6.60
2019-02-18T17:40:52.523Z,6.97
2019-02-18T17:43:55.660Z,6.73
2019-02-18T17:46:58.839Z,6.90
2019-02-18T17:50:02.015Z,6.80
2019-02-18T17:53:05.316Z,8.00
2019-02-18T17:56:08.550Z,7.00
2019-02-18T17:59:11.711Z,7.93
2019-02-18T18:02:14.883Z,7.10
2019-02-18T18:05:17.983Z,7.50
2019-02-18T18:08:21.229Z,6.80
2019-02-18T18:11:24.475Z,12.80
2019-02-18T18:14:27.757Z,9.20
2019-02-18T18:17:30.864Z,10.70
2019-02-18T18:20:34.045Z,10.50
2019-02-18T18:23:37.147Z,10.63
2019-02-18T18:26:40.256Z,10.50
2019-02-18T18:29:43.526Z,8.77
2019-02-18T18:32:46.749Z,9.87
2019-02-18T18:35:49.976Z,9.43
2019-02-18T18:38:53.152Z,9.53
2019-02-18T18:41:56.231Z,10.23
2019-02-18T18:44:59.411Z,11.13
2019-02-18T18:48:02.611Z,11.93
2019-02-18T18:51:05.907Z,10.80
2019-02-18T18:54:09.093Z,10.03
2019-02-18T18:57:12.212Z,10.40
2019-02-18T19:00:17.448Z,10.90
2019-02-18T19:03:20.631Z,9.87
2019-02-18T19:06:23.719Z,9.63
2019-02-18T19:09:26.919Z,11.20
2019-02-18T19:12:30.141Z,10.00
2019-02-18T19:15:33.313Z,10.10
2019-02-18T19:18:36.395Z,10.20
2019-02-18T19:21:39.582Z,10.30
2019-02-18T19:24:42.823Z,9.43
2019-02-18T19:27:45.979Z,10.30
2019-02-18T19:30:49.208Z,9.30
2019-02-18T19:33:52.362Z,9.20
2019-02-18T19:36:55.588Z,9.27
2019-02-18T19:39:58.778Z,9.97
2019-02-18T19:43:01.867Z,9.37
2019-02-18T19:46:05.071Z,9.63
2019-02-18T19:49:08.248Z,9.13
2019-02-18T19:52:11.456Z,9.40
2019-02-18T19:55:14.639Z,10.50
2019-02-18T19:58:17.730Z,12.93
2019-02-18T20:01:20.928Z,13.37
2019-02-18T20:04:24.103Z,13.30
2019-02-18T20:07:27.303Z,12.33
2019-02-18T20:10:30.507Z,12.20
2019-02-18T20:13:33.687Z,12.60
2019-02-18T20:16:36.889Z,12.03
2019-02-18T20:19:40.143Z,11.63
2019-02-18T20:22:43.288Z,11.83
2019-02-18T20:25:46.474Z,13.20
2019-02-18T20:28:49.715Z,13.00
2019-02-18T20:31:52.854Z,12.33
2019-02-18T20:34:56.035Z,13.33
2019-02-18T20:37:59.802Z,13.00
2019-02-18T20:41:02.941Z,14.37
2019-02-18T20:44:07.674Z,16.63
2019-02-18T20:47:10.562Z,16.03
2019-02-18T20:50:13.788Z,14.73
2019-02-18T20:53:17.149Z,15.37
2019-02-18T20:56:20.261Z,15.33
2019-02-18T20:59:23.448Z,15.13
2019-02-18T21:02:26.742Z,15.20
2019-02-18T21:05:29.855Z,17.23
2019-02-18T21:08:33.031Z,15.77
2019-02-18T21:11:36.683Z,16.60
2019-02-18T21:14:39.823Z,16.77
2019-02-18T21:17:42.944Z,17.03
2019-02-18T21:20:46.139Z,16.80
2019-02-18T21:23:49.318Z,16.93
2019-02-18T21:26:52.507Z,16.20
2019-02-18T21:29:55.703Z,16.53
2019-02-18T21:32:58.791Z,16.10
2019-02-18T21:36:01.899Z,15.33
2019-02-18T21:39:06.867Z,15.03
2019-02-18T21:42:10.137Z,15.73
2019-02-18T21:45:13.371Z,15.70
2019-02-18T21:48:16.611Z,15.27
2019-02-18T21:51:19.973Z,16.07
2019-02-18T21:54:23.231Z,16.27
2019-02-18T21:57:26.582Z,15.77
2019-02-18T22:00:29.800Z,15.57
2019-02-18T22:03:33.060Z,16.17
2019-02-18T22:06:36.258Z,15.00
2019-02-18T22:09:39.378Z,14.97
2019-02-18T22:12:42.591Z,15.37
2019-02-18T22:15:45.815Z,15.23
2019-02-18T22:18:49.010Z,16.23
2019-02-18T22:21:52.883Z,15.73
2019-02-18T22:24:55.999Z,16.70
2019-02-18T22:27:59.166Z,17.17
2019-02-18T22:31:02.357Z,17.63
2019-02-18T22:34:05.478Z,18.53
2019-02-18T22:37:08.656Z,21.00
2019-02-18T22:40:11.951Z,19.37
2019-02-18T22:43:15.127Z,19.37
2019-02-18T22:46:18.223Z,19.27
2019-02-18T22:49:21.420Z,20.13
2019-02-18T22:52:24.637Z,18.90
2019-02-18T22:55:27.871Z,19.03
2019-02-18T22:58:31.051Z,18.83
2019-02-18T23:01:34.167Z,17.23
2019-02-18T23:04:37.380Z,18.57
2019-02-18T23:07:40.595Z,19.13
2019-02-18T23:10:43.827Z,18.83
2019-02-18T23:13:47.077Z,18.50
2019-02-18T23:16:50.239Z,18.17
2019-02-18T23:19:54.292Z,17.83
2019-02-18T23:22:57.791Z,17.67
2019-02-18T23:26:00.887Z,17.30
2019-02-18T23:29:04.091Z,17.07
2019-02-18T23:32:07.325Z,18.40
2019-02-18T23:35:10.466Z,17.33
2019-02-18T23:38:13.555Z,17.93
2019-02-18T23:41:16.766Z,17.33
2019-02-18T23:44:20.063Z,17.83
2019-02-18T23:47:23.143Z,18.13
2019-02-18T23:50:26.431Z,18.40
2019-02-18T23:53:29.602Z,17.47
2019-02-18T23:56:32.719Z,18.57
2019-02-18T23:59:35.925Z,17.60
